Time;durP1;ratioP1;P1;durP2;ratioP2;P2;SDS_P1;SDS_P2;PMS_P1;PMS_P2;Temp;Humidity;BMP_temperature;BMP_pressure;BME280_temperature;BME280_humidity;BME280_pressure;Samples;Min_cycle;Max_cycle;Signal;HPM_P1;HPM_P2
2021/01/14 00:00:13;;;;;;;12.83;2.37;;;4.00;88.40;;;;;;4429448;32;20224;-63
2021/01/14 00:02:41;;;;;;;14.20;2.20;;;3.90;86.10;;;;;;4420715;32;20249;-64
2021/01/14 00:05:09;;;;;;;7.10;1.90;;;3.90;87.50;;;;;;4427920;32;20225;-65
2021/01/14 00:07:41;;;;;;;10.37;2.50;;;3.90;86.20;;;;;;4433990;32;20215;-64
2021/01/14 00:10:10;;;;;;;5.53;1.87;;;3.90;88.80;;;;;;4434817;32;20218;-65
2021/01/14 00:12:36;;;;;;;7.80;1.63;;;4.00;89.80;;;;;;4434011;32;20169;-64
2021/01/14 00:15:06;;;;;;;6.57;1.77;;;4.00;90.20;;;;;;4433730;32;20171;-66
2021/01/14 00:17:35;;;;;;;9.77;1.97;;;3.90;88.70;;;;;;4432961;32;20152;-65
2021/01/14 00:20:08;;;;;;;8.57;2.33;;;3.90;89.30;;;;;;4431191;32;20145;-64
2021/01/14 00:22:36;;;;;;;9.17;1.70;;;3.90;89.90;;;;;;4434456;32;20169;-64
2021/01/14 00:25:05;;;;;;;7.93;1.80;;;3.90;89.10;;;;;;4434325;32;20146;-64
2021/01/14 00:27:32;;;;;;;6.37;1.90;;;3.90;90.10;;;;;;4436318;32;20497;-65
2021/01/14 00:29:58;;;;;;;8.50;1.97;;;3.90;90.40;;;;;;4433175;32;20217;-64
2021/01/14 00:32:25;;;;;;;10.20;3.03;;;3.90;90.20;;;;;;4435348;32;20167;-65
2021/01/14 00:34:52;;;;;;;8.43;1.73;;;3.90;90.40;;;;;;4434108;32;20214;-63
2021/01/14 00:40:05;;;;;;;8.53;2.20;;;3.80;90.20;;;;;;4434752;32;20208;-63
2021/01/14 00:42:31;;;;;;;13.70;2.50;;;3.80;90.30;;;;;;4433905;32;20161;-64
2021/01/14 00:45:01;;;;;;;12.93;2.47;;;3.70;89.60;;;;;;4434278;32;20199;-65
2021/01/14 00:47:34;;;;;;;6.37;1.50;;;3.70;90.30;;;;;;4433675;32;20157;-63
2021/01/14 00:50:01;;;;;;;8.33;2.10;;;3.60;89.90;;;;;;4434460;32;20248;-63
2021/01/14 00:52:33;;;;;;;8.17;2.00;;;3.60;88.60;;;;;;4433200;32;20181;-64
2021/01/14 00:54:59;;;;;;;10.77;2.07;;;3.60;87.20;;;;;;4434315;32;20189;-65
2021/01/14 00:57:25;;;;;;;6.93;1.67;;;3.60;87.90;;;;;;4434260;32;20145;-64
2021/01/14 00:59:52;;;;;;;10.83;1.67;;;3.60;88.00;;;;;;4433907;32;20189;-62
2021/01/14 01:02:24;;;;;;;7.73;1.80;;;3.50;88.50;;;;;;4433011;32;20189;-63
2021/01/14 01:04:51;;;;;;;12.37;2.20;;;3.40;86.40;;;;;;4433290;32;20448;-64
2021/01/14 01:07:18;;;;;;;9.10;2.33;;;3.40;88.80;;;;;;4434399;32;20188;-65
2021/01/14 01:09:44;;;;;;;4.80;1.53;;;3.40;90.10;;;;;;4425504;32;20263;-63
2021/01/14 01:12:11;;;;;;;6.03;1.70;;;3.50;90.10;;;;;;4428779;32;20204;-64
2021/01/14 01:14:37;;;;;;;3.87;1.57;;;3.50;90.40;;;;;;4433915;32;20579;-65
2021/01/14 01:17:08;;;;;;;9.70;1.63;;;3.50;90.10;;;;;;4432642;32;20224;-65
2021/01/14 01:19:36;;;;;;;8.07;1.90;;;3.60;90.50;;;;;;4429583;32;20202;-64
2021/01/14 01:22:03;;;;;;;6.27;2.00;;;3.50;90.60;;;;;;4421374;32;20441;-63
2021/01/14 01:24:29;;;;;;;9.87;1.90;;;3.60;90.70;;;;;;4425549;32;20193;-63
2021/01/14 01:27:01;;;;;;;9.97;1.70;;;3.60;90.70;;;;;;4434845;32;20241;-65
2021/01/14 01:29:27;;;;;;;7.97;1.70;;;3.60;90.80;;;;;;4437574;32;20174;-64
2021/01/14 01:31:54;;;;;;;9.60;1.80;;;3.60;90.50;;;;;;4436423;32;20211;-65
2021/01/14 01:34:20;;;;;;;11.60;1.70;;;3.60;90.50;;;;;;4436115;32;20268;-63
2021/01/14 01:36:51;;;;;;;5.80;1.50;;;3.50;90.10;;;;;;4436602;32;20163;-64
2021/01/14 01:39:27;;;;;;;6.97;1.43;;;3.50;89.50;;;;;;4437459;32;20144;-64
2021/01/14 01:41:56;;;;;;;6.07;1.60;;;3.50;88.80;;;;;;4433633;32;20249;-65
2021/01/14 01:44:24;;;;;;;8.67;1.97;;;3.50;87.30;;;;;;4435984;32;20158;-63
2021/01/14 01:47:04;;;;;;;6.07;1.93;;;3.50;88.80;;;;;;4436685;32;20564;-65
2021/01/14 01:49:33;;;;;;;8.30;1.40;;;3.50;90.00;;;;;;4431199;32;20151;-65
2021/01/14 01:52:02;;;;;;;6.07;1.40;;;3.50;90.30;;;;;;4437864;32;20665;-65
2021/01/14 01:54:33;;;;;;;7.87;1.47;;;3.40;87.30;;;;;;4436169;32;20218;-65
2021/01/14 01:57:01;;;;;;;5.90;1.47;;;3.40;86.80;;;;;;4436550;32;20203;-64
2021/01/14 01:59:30;;;;;;;7.97;1.50;;;3.40;88.70;;;;;;4435490;32;20361;-65
2021/01/14 02:01:58;;;;;;;5.00;1.40;;;3.40;88.40;;;;;;4435565;32;20170;-65
2021/01/14 02:04:28;;;;;;;5.90;1.93;;;3.40;88.00;;;;;;4437822;32;20536;-65
2021/01/14 02:07:08;;;;;;;3.63;1.40;;;3.30;87.20;;;;;;4435936;32;20156;-65
2021/01/14 02:09:39;;;;;;;9.30;1.47;;;3.10;85.70;;;;;;4436164;32;20269;-64
2021/01/14 02:12:05;;;;;;;8.17;2.10;;;3.10;86.90;;;;;;4435489;32;20215;-64
2021/01/14 02:14:34;;;;;;;6.90;1.27;;;3.20;89.40;;;;;;4435600;32;20199;-66
2021/01/14 02:17:02;;;;;;;11.27;2.50;;;3.10;89.30;;;;;;4436781;32;20231;-64
2021/01/14 02:19:38;;;;;;;6.77;1.80;;;3.10;90.10;;;;;;4435543;32;20155;-63
2021/01/14 02:22:14;;;;;;;6.90;1.37;;;3.10;90.80;;;;;;4435035;32;20540;-65
2021/01/14 02:24:50;;;;;;;5.63;1.37;;;3.20;91.10;;;;;;4435862;32;20219;-66
2021/01/14 02:27:20;;;;;;;9.10;2.03;;;3.20;91.00;;;;;;4435654;32;20209;-62
2021/01/14 02:29:48;;;;;;;4.70;1.30;;;3.30;90.90;;;;;;4435954;32;20219;-65
2021/01/14 02:32:18;;;;;;;4.77;1.50;;;3.30;91.00;;;;;;4427702;32;20163;-63
2021/01/14 02:34:53;;;;;;;6.20;1.77;;;3.30;91.10;;;;;;4425246;32;20377;-65
2021/01/14 02:37:19;;;;;;;7.20;1.20;;;3.30;91.10;;;;;;4431256;32;20215;-65
2021/01/14 02:39:46;;;;;;;3.03;1.37;;;3.30;90.80;;;;;;4435771;32;20212;-63
2021/01/14 02:42:15;;;;;;;6.03;1.33;;;3.30;90.80;;;;;;4435893;32;20163;-64
2021/01/14 02:44:42;;;;;;;9.80;1.50;;;3.20;90.80;;;;;;4436932;32;20156;-64
2021/01/14 02:47:11;;;;;;;6.00;1.33;;;3.20;90.30;;;;;;4436519;32;20220;-65
2021/01/14 02:49:44;;;;;;;8.83;1.40;;;3.20;90.20;;;;;;4435618;32;20196;-63
2021/01/14 02:52:12;;;;;;;6.33;1.03;;;3.10;89.30;;;;;;4434610;32;20210;-65
2021/01/14 02:54:40;;;;;;;5.97;1.83;;;3.10;90.10;;;;;;4430307;32;20150;-62
2021/01/14 02:57:07;;;;;;;5.53;1.00;;;3.10;90.00;;;;;;4433311;32;20593;-64
2021/01/14 02:59:34;;;;;;;6.27;1.70;;;3.20;90.40;;;;;;4434893;32;20156;-63
2021/01/14 03:02:01;;;;;;;7.97;1.40;;;3.20;90.70;;;;;;4434430;32;20228;-65
2021/01/14 03:04:27;;;;;;;3.53;1.43;;;3.20;90.80;;;;;;4434817;32;20309;-65
2021/01/14 03:06:59;;;;;;;7.67;1.13;;;3.30;91.00;;;;;;4434765;32;20609;-65
2021/01/14 03:09:32;;;;;;;2.50;1.10;;;3.30;91.10;;;;;;4434807;32;20182;-64
2021/01/14 03:11:58;;;;;;;3.83;1.30;;;3.30;91.20;;;;;;4436039;32;20143;-63
2021/01/14 03:14:24;;;;;;;4.30;1.20;;;3.20;91.20;;;;;;4435446;32;20169;-63
2021/01/14 03:16:51;;;;;;;9.40;1.57;;;3.10;91.20;;;;;;4434487;32;20179;-65
2021/01/14 03:19:18;;;;;;;5.43;1.60;;;3.00;91.30;;;;;;4436496;32;20147;-63
2021/01/14 03:21:44;;;;;;;7.87;1.70;;;3.00;91.60;;;;;;4433820;32;20162;-63
2021/01/14 03:24:11;;;;;;;4.77;1.40;;;3.00;91.80;;;;;;4435537;32;20539;-63
2021/01/14 03:26:38;;;;;;;5.30;1.27;;;2.90;91.80;;;;;;4436235;32;20174;-64
2021/01/14 03:29:04;;;;;;;4.83;1.03;;;2.90;91.70;;;;;;4433585;32;20516;-62
2021/01/14 03:31:31;;;;;;;8.87;1.67;;;2.90;91.70;;;;;;4427719;32;20155;-63
2021/01/14 03:33:57;;;;;;;7.53;1.03;;;2.90;91.80;;;;;;4435163;32;20684;-65
2021/01/14 03:36:24;;;;;;;6.43;1.30;;;2.90;91.90;;;;;;4435529;32;20528;-65
2021/01/14 03:38:51;;;;;;;5.03;1.07;;;2.90;91.90;;;;;;4433953;32;20264;-64
2021/01/14 03:41:18;;;;;;;8.53;1.13;;;2.90;91.90;;;;;;4433643;32;20215;-63
2021/01/14 03:43:45;;;;;;;7.87;1.50;;;2.80;92.00;;;;;;4435391;32;20237;-66
2021/01/14 03:46:13;;;;;;;7.73;1.53;;;2.80;92.20;;;;;;4434284;32;20218;-64
2021/01/14 03:48:41;;;;;;;5.57;1.17;;;2.70;91.90;;;;;;4434517;32;20190;-63
2021/01/14 03:51:17;;;;;;;7.87;1.33;;;2.70;92.00;;;;;;4427234;32;20211;-64
2021/01/14 03:53:46;;;;;;;5.97;1.17;;;2.60;92.10;;;;;;4434038;32;20154;-63
2021/01/14 03:56:12;;;;;;;11.07;1.30;;;2.60;92.40;;;;;;4434287;32;20171;-64
2021/01/14 03:58:38;;;;;;;4.73;1.37;;;2.60;92.40;;;;;;4434167;32;20203;-65
2021/01/14 04:01:08;;;;;;;4.53;1.50;;;2.60;92.50;;;;;;4433212;32;20233;-65
2021/01/14 04:03:48;;;;;;;8.67;1.47;;;2.60;92.50;;;;;;4434383;32;20205;-62
2021/01/14 04:06:14;;;;;;;4.80;1.37;;;2.60;92.50;;;;;;4434196;32;20222;-65
2021/01/14 04:08:41;;;;;;;4.57;1.07;;;2.60;92.50;;;;;;4435515;32;20582;-67
2021/01/14 04:11:12;;;;;;;4.93;1.03;;;2.60;92.50;;;;;;4434672;32;20151;-67
2021/01/14 04:13:44;;;;;;;5.07;1.50;;;2.70;92.50;;;;;;4433992;32;20336;-65
2021/01/14 04:16:18;;;;;;;6.70;1.70;;;2.70;92.40;;;;;;4434112;32;20230;-65
2021/01/14 04:18:45;;;;;;;4.37;1.73;;;2.70;92.30;;;;;;4435291;32;20147;-63
2021/01/14 04:21:15;;;;;;;5.40;1.43;;;2.70;92.20;;;;;;4434625;32;20197;-66
2021/01/14 04:23:43;;;;;;;8.07;1.60;;;2.70;92.20;;;;;;4433838;32;20197;-65
2021/01/14 04:26:12;;;;;;;8.10;1.50;;;2.70;92.10;;;;;;4433931;32;20164;-64
2021/01/14 04:28:39;;;;;;;6.47;1.40;;;2.70;92.00;;;;;;4434344;32;20317;-65
2021/01/14 04:31:06;;;;;;;8.73;1.60;;;2.70;91.90;;;;;;4435132;32;20171;-62
2021/01/14 04:33:32;;;;;;;8.80;1.50;;;2.60;91.90;;;;;;4432997;32;20226;-64
2021/01/14 04:36:00;;;;;;;2.37;1.20;;;2.60;91.90;;;;;;4433712;32;20207;-65
2021/01/14 04:38:29;;;;;;;7.20;1.67;;;2.60;92.00;;;;;;4434394;32;20308;-66
2021/01/14 04:40:57;;;;;;;4.07;1.10;;;2.60;92.00;;;;;;4433598;32;20156;-63
2021/01/14 04:43:25;;;;;;;5.13;1.33;;;2.60;91.60;;;;;;4434296;32;20143;-64
2021/01/14 04:46:04;;;;;;;6.47;1.60;;;2.50;91.70;;;;;;4431524;32;20198;-65
2021/01/14 04:48:31;;;;;;;8.40;1.57;;;2.60;91.90;;;;;;4434755;32;20235;-64
2021/01/14 04:51:08;;;;;;;9.00;3.03;;;2.60;91.80;;;;;;4434076;32;20186;-65
2021/01/14 04:53:35;;;;;;;5.10;1.20;;;2.60;91.40;;;;;;4435628;32;20185;-64
2021/01/14 04:56:06;;;;;;;8.17;1.53;;;2.60;91.00;;;;;;4434386;32;20538;-64
2021/01/14 04:58:33;;;;;;;8.23;1.40;;;2.60;90.40;;;;;;4436873;32;20152;-64
2021/01/14 05:01:03;;;;;;;4.03;1.10;;;2.60;90.10;;;;;;4435140;32;20218;-63
2021/01/14 05:03:29;;;;;;;3.40;1.10;;;2.70;90.00;;;;;;4436965;32;20182;-63
2021/01/14 05:05:56;;;;;;;5.10;1.33;;;2.70;89.90;;;;;;4437831;32;20195;-64
2021/01/14 05:08:28;;;;;;;4.80;1.33;;;2.60;88.80;;;;;;4437035;32;20154;-64
2021/01/14 05:10:55;;;;;;;10.40;1.20;;;2.60;88.70;;;;;;4435853;32;20222;-65
2021/01/14 05:13:22;;;;;;;8.77;1.30;;;2.60;89.20;;;;;;4436934;32;20146;-63
2021/01/14 05:15:50;;;;;;;8.47;1.50;;;2.60;90.20;;;;;;4438259;32;20178;-64
2021/01/14 05:18:16;;;;;;;6.97;1.27;;;2.60;90.00;;;;;;4436560;32;20436;-64
2021/01/14 05:20:43;;;;;;;9.40;1.87;;;2.60;90.10;;;;;;4435963;32;20226;-64
2021/01/14 05:23:09;;;;;;;6.67;1.00;;;2.60;89.20;;;;;;4428827;32;20159;-65
2021/01/14 05:25:35;;;;;;;5.33;1.30;;;2.70;88.70;;;;;;4434378;32;20219;-65
2021/01/14 05:28:14;;;;;;;4.80;1.50;;;2.60;88.50;;;;;;4437041;32;20472;-65
2021/01/14 05:30:42;;;;;;;2.37;1.90;;;2.70;89.50;;;;;;4437970;32;20433;-64
2021/01/14 05:33:16;;;;;;;7.73;1.20;;;2.60;89.60;;;;;;4434997;32;20189;-63
2021/01/14 05:35:50;;;;;;;4.93;1.10;;;2.70;88.60;;;;;;4437618;32;20241;-63
2021/01/14 05:38:28;;;;;;;3.93;1.30;;;2.70;88.40;;;;;;4436547;32;20155;-64
2021/01/14 05:41:11;;;;;;;3.53;1.20;;;2.60;88.70;;;;;;4435978;32;20210;-63
2021/01/14 05:43:54;;;;;;;4.33;1.30;;;2.60;87.90;;;;;;4436500;32;20146;-64
2021/01/14 05:46:23;;;;;;;4.03;1.37;;;2.60;87.70;;;;;;4422132;32;20185;-63
2021/01/14 05:48:52;;;;;;;8.17;1.47;;;2.60;88.70;;;;;;4425890;32;20214;-65
2021/01/14 05:51:20;;;;;;;3.33;1.23;;;2.50;88.60;;;;;;4430563;32;20208;-65
2021/01/14 05:54:02;;;;;;;7.17;2.13;;;2.50;88.30;;;;;;4434170;32;20147;-63
2021/01/14 05:56:41;;;;;;;4.07;1.10;;;2.60;87.70;;;;;;4432621;32;20245;-62
2021/01/14 05:59:14;;;;;;;6.67;1.37;;;2.50;88.00;;;;;;4431880;32;20530;-63
2021/01/14 06:01:54;;;;;;;4.77;1.07;;;2.50;88.30;;;;;;4435864;32;20342;-65
2021/01/14 06:04:23;;;;;;;9.70;1.73;;;2.50;88.40;;;;;;4436052;32;20193;-64
2021/01/14 06:06:52;;;;;;;4.43;1.40;;;2.50;89.40;;;;;;4423713;32;20178;-62
2021/01/14 06:09:22;;;;;;;5.73;1.43;;;2.60;89.50;;;;;;4423309;32;20184;-66
2021/01/14 06:11:49;;;;;;;2.00;1.30;;;2.50;88.70;;;;;;4435980;32;20222;-65
2021/01/14 06:14:32;;;;;;;9.67;2.17;;;2.60;88.90;;;;;;4436059;32;20225;-62
2021/01/14 06:17:04;;;;;;;11.40;2.17;;;2.50;89.10;;;;;;4435607;32;20273;-65
2021/01/14 06:19:32;;;;;;;12.13;1.80;;;2.50;89.90;;;;;;4437606;32;20681;-63
2021/01/14 06:21:59;;;;;;;6.83;1.90;;;2.60;89.30;;;;;;4436019;32;20182;-62
2021/01/14 06:24:30;;;;;;;8.63;1.80;;;2.50;89.60;;;;;;4435829;32;20179;-64
2021/01/14 06:26:58;;;;;;;6.40;1.63;;;2.60;89.10;;;;;;4432195;32;20178;-63
2021/01/14 06:29:29;;;;;;;4.77;2.13;;;2.50;89.00;;;;;;4435329;32;20156;-62
2021/01/14 06:32:08;;;;;;;11.07;1.53;;;2.60;87.90;;;;;;4434795;32;20186;-63
2021/01/14 06:34:45;;;;;;;5.97;1.73;;;2.50;88.00;;;;;;4436802;32;20210;-62
2021/01/14 06:37:19;;;;;;;6.13;1.50;;;2.50;88.20;;;;;;4429796;32;20167;-64
2021/01/14 06:39:51;;;;;;;8.57;1.67;;;2.50;89.00;;;;;;4428774;32;20505;-65
2021/01/14 06:42:26;;;;;;;13.37;2.37;;;2.50;89.00;;;;;;4426603;32;20226;-65
2021/01/14 06:44:57;;;;;;;9.30;1.60;;;2.60;89.30;;;;;;4430441;32;20188;-63
2021/01/14 06:47:43;;;;;;;5.27;1.70;;;2.60;90.00;;;;;;4429013;32;20178;-66
2021/01/14 06:50:34;;;;;;;5.87;2.27;;;2.60;90.20;;;;;;4425751;32;20480;-65
2021/01/14 06:53:10;;;;;;;7.07;1.47;;;2.60;90.20;;;;;;4427142;32;20194;-64
2021/01/14 06:55:40;;;;;;;6.27;2.20;;;2.60;90.50;;;;;;4434314;32;20181;-62
2021/01/14 06:58:12;;;;;;;6.33;2.23;;;2.60;90.80;;;;;;4435518;32;20277;-63
2021/01/14 07:00:39;;;;;;;8.70;2.33;;;2.60;90.70;;;;;;4435600;32;20211;-62
2021/01/14 07:03:20;;;;;;;5.43;1.80;;;2.60;90.60;;;;;;4434496;32;20155;-62
2021/01/14 07:06:13;;;;;;;9.70;1.57;;;2.60;90.80;;;;;;4434053;32;20248;-63
2021/01/14 07:08:42;;;;;;;10.40;2.50;;;2.60;90.80;;;;;;4429935;32;20305;-66
2021/01/14 07:11:12;;;;;;;6.67;1.50;;;2.60;90.70;;;;;;4433151;32;20166;-62
2021/01/14 07:13:48;;;;;;;6.57;1.77;;;2.60;90.60;;;;;;4431656;32;20158;-64
2021/01/14 07:16:15;;;;;;;6.30;1.73;;;2.50;90.70;;;;;;4434990;32;20166;-62
2021/01/14 07:18:43;;;;;;;2.57;1.50;;;2.50;90.60;;;;;;4434243;32;20151;-61
2021/01/14 07:21:34;;;;;;;6.87;1.60;;;2.50;90.80;;;;;;4424456;32;20147;-65
2021/01/14 07:24:11;;;;;;;5.63;2.00;;;2.50;90.70;;;;;;4433536;32;20175;-64
2021/01/14 07:26:43;;;;;;;4.77;2.23;;;2.50;90.70;;;;;;4424929;32;20271;-63
2021/01/14 07:29:11;;;;;;;4.67;2.13;;;2.40;90.60;;;;;;4412052;32;20234;-64
2021/01/14 07:31:48;;;;;;;4.60;1.97;;;2.40;90.60;;;;;;4420749;32;20164;-62
2021/01/14 07:34:43;;;;;;;8.83;2.00;;;2.40;90.50;;;;;;4418638;32;20151;-63
2021/01/14 07:37:12;;;;;;;7.70;2.30;;;2.40;89.90;;;;;;4360249;32;21730;-64
2021/01/14 07:39:50;;;;;;;5.33;1.90;;;2.40;90.00;;;;;;4357404;32;20172;-63
2021/01/14 07:42:35;;;;;;;7.33;1.63;;;2.40;90.20;;;;;;4360230;32;20489;-65
2021/01/14 07:45:06;;;;;;;4.87;1.60;;;2.30;89.70;;;;;;4358706;32;20631;-63
2021/01/14 07:47:37;;;;;;;5.67;1.63;;;2.30;89.00;;;;;;4359467;32;21832;-63
2021/01/14 07:50:19;;;;;;;8.97;1.73;;;2.30;89.10;;;;;;4357625;32;20242;-62
2021/01/14 07:52:47;;;;;;;8.87;2.27;;;2.30;89.10;;;;;;4354868;32;20232;-61
2021/01/14 07:55:24;;;;;;;8.10;2.10;;;2.20;88.80;;;;;;4357100;32;20655;-63
2021/01/14 07:58:01;;;;;;;9.93;1.77;;;2.30;89.30;;;;;;4353984;32;20907;-63
2021/01/14 08:00:29;;;;;;;6.87;1.80;;;2.30;89.40;;;;;;4356741;32;20616;-63
2021/01/14 08:03:09;;;;;;;7.33;2.57;;;2.30;89.60;;;;;;4353106;32;20211;-65
2021/01/14 08:05:56;;;;;;;11.40;1.63;;;2.30;89.50;;;;;;4355696;32;20269;-64
2021/01/14 08:08:35;;;;;;;7.03;1.90;;;2.30;89.90;;;;;;4358526;32;20477;-65
2021/01/14 08:11:34;;;;;;;6.10;1.60;;;2.40;90.00;;;;;;4358153;32;20489;-62
2021/01/14 08:14:14;;;;;;;7.37;1.90;;;2.40;89.40;;;;;;4329920;32;20164;-63
2021/01/14 08:16:56;;;;;;;8.00;2.20;;;2.50;89.10;;;;;;4362579;32;20157;-65
2021/01/14 08:19:44;;;;;;;6.50;2.07;;;2.50;88.20;;;;;;4358933;32;20164;-65
2021/01/14 08:22:18;;;;;;;6.13;2.17;;;2.60;88.50;;;;;;4365561;32;20487;-62
2021/01/14 08:24:55;;;;;;;5.47;1.80;;;2.60;88.20;;;;;;4364095;32;20576;-63
2021/01/14 08:27:33;;;;;;;8.47;1.67;;;2.60;87.90;;;;;;4362931;32;20242;-65
2021/01/14 08:30:09;;;;;;;6.90;1.50;;;2.60;88.00;;;;;;4359472;32;20242;-64
2021/01/14 08:33:30;;;;;;;8.17;1.73;;;2.60;87.90;;;;;;4364499;32;20211;-62
2021/01/14 08:36:15;;;;;;;6.97;1.83;;;2.60;87.70;;;;;;4362059;32;20678;-67
2021/01/14 08:39:02;;;;;;;5.50;1.90;;;2.60;87.60;;;;;;4365482;32;20199;-63
2021/01/14 08:41:40;;;;;;;7.03;1.63;;;2.70;87.30;;;;;;4362412;32;20179;-65
2021/01/14 08:44:08;;;;;;;7.83;1.50;;;2.70;87.60;;;;;;4364721;32;20232;-65
2021/01/14 08:46:51;;;;;;;8.43;2.10;;;2.80;87.70;;;;;;4364050;32;20216;-64
2021/01/14 08:49:37;;;;;;;5.43;2.17;;;2.80;87.40;;;;;;4387323;32;20151;-63
2021/01/14 08:52:11;;;;;;;9.53;2.33;;;2.90;87.10;;;;;;4426216;32;20214;-65
2021/01/14 08:54:42;;;;;;;7.67;1.77;;;2.90;87.20;;;;;;4420895;32;20222;-65
2021/01/14 08:57:09;;;;;;;7.90;1.87;;;2.90;86.50;;;;;;4421890;32;20179;-65
2021/01/14 08:59:41;;;;;;;8.03;2.67;;;3.00;86.00;;;;;;4422484;32;20159;-65
2021/01/14 09:02:13;;;;;;;5.57;2.00;;;2.90;86.10;;;;;;4423498;32;20155;-63
2021/01/14 09:04:52;;;;;;;8.93;2.03;;;2.90;85.90;;;;;;4423441;32;20273;-65
2021/01/14 09:07:26;;;;;;;6.37;2.10;;;2.90;85.60;;;;;;4424557;32;20167;-64
2021/01/14 09:09:55;;;;;;;4.53;2.00;;;2.90;86.10;;;;;;4424647;32;20158;-65
2021/01/14 09:12:35;;;;;;;8.00;2.37;;;3.00;85.60;;;;;;4421260;32;20666;-65
2021/01/14 09:15:02;;;;;;;9.13;1.97;;;2.90;86.00;;;;;;4422189;32;20214;-65
2021/01/14 09:17:31;;;;;;;8.30;2.30;;;3.00;86.00;;;;;;4423094;32;20220;-64
2021/01/14 09:20:01;;;;;;;11.33;2.00;;;3.00;85.50;;;;;;4424095;32;20184;-65
2021/01/14 09:22:35;;;;;;;7.30;2.13;;;3.10;85.80;;;;;;4418585;32;20164;-65
2021/01/14 09:25:03;;;;;;;9.40;1.90;;;3.20;84.80;;;;;;4426699;32;20296;-66
2021/01/14 09:27:31;;;;;;;5.50;2.07;;;3.30;84.90;;;;;;4426393;32;20642;-64
2021/01/14 09:30:18;;;;;;;7.40;2.00;;;3.30;84.10;;;;;;4426587;32;20179;-65
2021/01/14 09:33:01;;;;;;;3.83;1.60;;;3.30;84.00;;;;;;4428214;32;20598;-64
2021/01/14 09:38:25;;;;;;;8.37;2.13;;;3.40;83.00;;;;;;4377327;32;20318;-64
2021/01/14 09:40:56;;;;;;;9.07;2.00;;;3.50;82.40;;;;;;4376370;32;20191;-65
2021/01/14 09:43:47;;;;;;;9.60;2.73;;;3.50;82.40;;;;;;4375820;32;20246;-67
2021/01/14 09:46:26;;;;;;;10.27;2.20;;;3.50;82.60;;;;;;4379613;32;20232;-63
2021/01/14 09:49:07;;;;;;;8.83;2.30;;;3.50;82.30;;;;;;4377531;32;20198;-65
2021/01/14 09:51:37;;;;;;;12.20;3.03;;;3.60;81.40;;;;;;4376114;32;20183;-64
2021/01/14 09:54:05;;;;;;;8.80;2.40;;;3.60;81.20;;;;;;4378830;32;20292;-65
2021/01/14 09:56:40;;;;;;;5.43;1.90;;;3.60;81.60;;;;;;4376941;32;20212;-63
2021/01/14 09:59:15;;;;;;;7.03;1.83;;;3.50;80.50;;;;;;4378304;32;20326;-63
2021/01/14 10:01:57;;;;;;;7.57;2.40;;;3.50;80.50;;;;;;4376232;32;20587;-64
2021/01/14 10:04:34;;;;;;;5.97;2.30;;;3.40;80.90;;;;;;4376917;32;20236;-65
2021/01/14 10:07:07;;;;;;;8.47;1.93;;;3.60;81.20;;;;;;4377630;32;20235;-66
2021/01/14 10:09:49;;;;;;;12.77;2.50;;;3.60;79.60;;;;;;4411134;32;20221;-64
2021/01/14 10:13:00;;;;;;;6.70;2.10;;;3.60;80.50;;;;;;4420740;32;20226;-66
2021/01/14 10:15:40;;;;;;;5.93;2.10;;;3.60;80.70;;;;;;4362378;32;20149;-65
2021/01/14 10:18:39;;;;;;;6.57;2.57;;;3.60;79.60;;;;;;4362615;32;20200;-63
2021/01/14 10:21:09;;;;;;;10.70;2.77;;;3.50;79.80;;;;;;4291836;33;20231;-63
2021/01/14 10:26:39;;;;;;;6.77;2.53;;;3.40;80.60;;;;;;4292687;33;20201;-65
2021/01/14 10:29:38;;;;;;;8.77;2.67;;;3.20;80.60;;;;;;4291242;33;20234;-66
2021/01/14 10:32:12;;;;;;;7.30;2.90;;;3.30;81.20;;;;;;4293003;33;20166;-64
2021/01/14 10:34:44;;;;;;;6.77;2.80;;;3.30;81.10;;;;;;4292079;33;20237;-64
2021/01/14 10:37:38;;;;;;;9.13;3.00;;;3.40;80.80;;;;;;4293326;33;20192;-65
2021/01/14 10:40:22;;;;;;;6.23;2.33;;;3.50;79.10;;;;;;4293752;33;20210;-64
2021/01/14 10:42:52;;;;;;;8.60;2.90;;;3.40;80.40;;;;;;4293116;33;20165;-66
2021/01/14 10:45:37;;;;;;;8.43;3.00;;;3.60;79.90;;;;;;4294527;33;20217;-64
2021/01/14 10:51:06;;;;;;;8.83;3.47;;;3.60;80.10;;;;;;4320888;32;20239;-64
2021/01/14 10:53:37;;;;;;;9.40;3.00;;;3.50;79.70;;;;;;4423110;32;20599;-64
2021/01/14 10:56:09;;;;;;;10.53;3.03;;;3.50;78.80;;;;;;4421703;32;20231;-63
2021/01/14 10:59:25;;;;;;;6.07;2.63;;;3.50;80.10;;;;;;4421361;32;20174;-63
2021/01/14 11:02:09;;;;;;;9.63;2.53;;;3.60;80.30;;;;;;4338348;33;20493;-67
2021/01/14 11:04:39;;;;;;;9.83;2.83;;;3.70;78.80;;;;;;4340790;33;20344;-68
2021/01/14 11:07:19;;;;;;;9.53;3.60;;;3.70;79.60;;;;;;4338313;33;20216;-66
2021/01/14 11:09:54;;;;;;;7.87;3.33;;;3.70;78.90;;;;;;4335550;33;20187;-67
2021/01/14 11:12:21;;;;;;;5.80;3.17;;;3.60;78.90;;;;;;4338087;33;20223;-64
2021/01/14 11:14:48;;;;;;;11.60;3.63;;;3.50;79.00;;;;;;4338451;33;20169;-65
2021/01/14 11:20:15;;;;;;;8.53;3.87;;;3.30;79.00;;;;;;4324309;33;20271;-64
2021/01/14 11:22:47;;;;;;;7.20;3.47;;;3.30;79.50;;;;;;4321072;33;20196;-64
2021/01/14 11:25:29;;;;;;;8.27;3.57;;;3.20;78.40;;;;;;4324224;33;20263;-64
2021/01/14 11:28:01;;;;;;;10.17;3.33;;;3.30;78.30;;;;;;4324218;33;20782;-65
2021/01/14 11:30:27;;;;;;;9.23;3.40;;;3.50;77.50;;;;;;4323079;33;20586;-65
2021/01/14 11:33:02;;;;;;;7.87;2.87;;;3.60;77.30;;;;;;4374770;32;20297;-65
2021/01/14 11:35:29;;;;;;;7.50;3.37;;;3.60;77.60;;;;;;4394036;32;20240;-63
2021/01/14 11:38:03;;;;;;;8.90;3.20;;;3.70;76.80;;;;;;4392381;32;20191;-64
2021/01/14 11:40:39;;;;;;;8.10;3.27;;;3.90;77.40;;;;;;4394982;32;20498;-64
2021/01/14 11:43:23;;;;;;;5.07;2.90;;;4.00;77.30;;;;;;4396790;32;20220;-65
2021/01/14 11:45:49;;;;;;;8.30;3.83;;;4.10;76.00;;;;;;4383473;32;20187;-65
2021/01/14 11:48:23;;;;;;;8.93;3.90;;;4.00;74.90;;;;;;4396856;32;20235;-62
2021/01/14 11:50:52;;;;;;;9.23;3.80;;;4.10;76.20;;;;;;4410589;32;20180;-66
2021/01/14 11:56:24;;;;;;;11.57;3.93;;;4.10;75.80;;;;;;4420784;32;20271;-64
2021/01/14 11:58:58;;;;;;;8.40;3.53;;;4.10;74.70;;;;;;4429734;32;20159;-62
2021/01/14 12:01:39;;;;;;;6.43;3.43;;;4.00;74.70;;;;;;4428979;32;20514;-66
2021/01/14 12:04:16;;;;;;;8.10;4.50;;;3.90;76.00;;;;;;4428878;32;20159;-66
2021/01/14 12:07:01;;;;;;;8.50;4.03;;;3.90;76.20;;;;;;4428628;32;20182;-65
2021/01/14 12:09:35;;;;;;;10.80;4.50;;;3.80;76.30;;;;;;4430271;32;20160;-63
2021/01/14 12:12:13;;;;;;;5.77;3.47;;;3.80;76.60;;;;;;4428095;32;20561;-63
2021/01/14 12:14:41;;;;;;;7.57;3.23;;;3.90;75.70;;;;;;4254227;32;5362582;-65
2021/01/14 12:17:17;;;;;;;8.70;4.37;;;4.10;76.10;;;;;;4406345;32;20156;-66
2021/01/14 12:19:43;;;;;;;8.93;3.90;;;4.20;75.20;;;;;;4409798;32;20155;-65
2021/01/14 12:22:17;;;;;;;8.07;3.43;;;4.30;74.70;;;;;;4406413;32;20186;-64
2021/01/14 12:24:46;;;;;;;7.07;3.30;;;4.30;74.40;;;;;;4406856;32;20151;-65
2021/01/14 12:30:11;;;;;;;9.43;3.40;;;4.30;74.60;;;;;;4405038;32;20198;-63
2021/01/14 12:32:46;;;;;;;10.60;3.87;;;4.20;74.50;;;;;;4406986;32;20198;-66
2021/01/14 12:35:19;;;;;;;5.87;3.23;;;4.20;73.80;;;;;;4404662;32;20183;-65
2021/01/14 12:38:02;;;;;;;5.60;3.43;;;4.00;74.70;;;;;;4405625;32;20290;-64
2021/01/14 12:40:41;;;;;;;7.40;3.57;;;3.90;74.70;;;;;;4407837;32;20505;-62
2021/01/14 12:43:15;;;;;;;8.43;3.00;;;3.90;74.80;;;;;;4406200;32;20159;-66
2021/01/14 12:45:54;;;;;;;7.37;3.40;;;3.80;75.20;;;;;;4403852;32;20176;-64
2021/01/14 12:48:30;;;;;;;7.10;3.63;;;3.70;76.30;;;;;;4406425;32;20192;-67
2021/01/14 12:50:56;;;;;;;5.40;3.23;;;3.60;76.80;;;;;;4410393;32;20227;-64
2021/01/14 12:53:27;;;;;;;11.93;3.60;;;3.50;76.30;;;;;;4407104;32;20167;-64
2021/01/14 12:56:08;;;;;;;5.23;3.03;;;3.50;76.20;;;;;;4405934;32;20180;-65
2021/01/14 12:58:42;;;;;;;7.00;4.10;;;3.40;75.60;;;;;;4407490;32;20178;-64
2021/01/14 13:01:28;;;;;;;8.07;3.87;;;3.50;76.10;;;;;;4408828;32;20357;-67
2021/01/14 13:04:07;;;;;;;7.43;3.60;;;3.40;75.40;;;;;;4408565;32;20163;-63
2021/01/14 13:07:05;;;;;;;;;;;;;;;;;;;;;
2021/01/14 13:09:49;;;;;;;7.57;3.70;;;3.40;77.20;;;;;;4405794;32;20175;-64
2021/01/14 13:12:20;;;;;;;8.97;3.53;;;3.30;77.00;;;;;;4405006;32;20163;-66
2021/01/14 13:14:48;;;;;;;9.10;3.73;;;3.20;76.30;;;;;;4404811;32;20177;-65
2021/01/14 13:17:21;;;;;;;8.70;3.53;;;3.20;77.10;;;;;;4406007;32;20155;-65
2021/01/14 13:19:47;;;;;;;9.43;4.00;;;3.20;77.20;;;;;;4411590;32;20175;-63
2021/01/14 13:22:19;;;;;;;9.77;4.23;;;3.20;78.40;;;;;;4408013;32;20190;-65
2021/01/14 13:24:54;;;;;;;5.07;3.40;;;3.10;78.20;;;;;;4418068;32;20154;-65
2021/01/14 13:27:21;;;;;;;8.03;3.97;;;3.10;78.20;;;;;;4417347;32;20591;-65
2021/01/14 13:29:47;;;;;;;6.40;3.70;;;3.00;77.70;;;;;;4408273;32;20155;-63
2021/01/14 13:32:15;;;;;;;8.03;4.03;;;2.90;78.60;;;;;;4415623;32;20175;-65
2021/01/14 13:34:52;;;;;;;8.20;4.10;;;2.90;78.90;;;;;;4409591;32;20195;-64
2021/01/14 13:37:19;;;;;;;13.00;4.67;;;2.80;78.50;;;;;;4410526;32;20170;-67
2021/01/14 13:39:50;;;;;;;9.50;3.80;;;2.80;79.10;;;;;;4416700;32;20687;-63
2021/01/14 13:42:19;;;;;;;12.53;4.70;;;2.80;78.90;;;;;;4406180;32;20223;-66
2021/01/14 13:44:49;;;;;;;8.37;4.10;;;2.80;78.50;;;;;;4413340;32;20174;-65
2021/01/14 13:47:16;;;;;;;7.23;3.90;;;2.80;78.80;;;;;;4408170;32;20216;-65